Time;durP1;ratioP1;P1;durP2;ratioP2;P2;SDS_P1;SDS_P2;PMS_P1;PMS_P2;Temp;Humidity;BMP_temperature;BMP_pressure;BME280_temperature;BME280_humidity;BME280_pressure;Samples;Min_cycle;Max_cycle;Signal;HPM_P1;HPM_P2
2022/07/08 00:00:25;;;;;;;1.08;0.98;;;22.70;50.80;;;;;;5055638;28;20260;-71
2022/07/08 00:05:19;;;;;;;0.95;0.80;;;22.70;50.70;;;;;;4937225;29;20212;-68
2022/07/08 00:07:46;;;;;;;1.67;1.00;;;22.70;50.70;;;;;;4938462;29;20276;-68
2022/07/08 00:10:15;;;;;;;0.82;0.80;;;22.70;50.60;;;;;;4920660;29;20207;-67
2022/07/08 00:12:42;;;;;;;2.30;0.90;;;22.70;50.80;;;;;;4921011;29;20593;-67
2022/07/08 00:15:10;;;;;;;1.50;1.20;;;22.70;50.90;;;;;;4920916;29;20207;-68
2022/07/08 00:17:38;;;;;;;1.23;1.10;;;22.70;50.90;;;;;;4937576;29;20223;-67
2022/07/08 00:20:06;;;;;;;1.17;0.98;;;22.70;50.70;;;;;;4920674;29;20294;-67
2022/07/08 00:22:34;;;;;;;0.98;0.80;;;22.70;50.60;;;;;;4937411;29;20199;-67
2022/07/08 00:25:01;;;;;;;1.10;1.00;;;22.60;50.80;;;;;;4921209;29;20290;-67
2022/07/08 00:27:29;;;;;;;0.80;0.80;;;22.60;50.80;;;;;;4920361;29;20278;-67
2022/07/08 00:29:56;;;;;;;1.20;1.10;;;22.60;50.60;;;;;;4920317;29;20219;-67
2022/07/08 00:32:24;;;;;;;1.00;1.00;;;22.60;50.60;;;;;;4937306;29;20233;-67
2022/07/08 00:34:51;;;;;;;1.42;1.15;;;22.60;50.60;;;;;;4920290;29;20708;-67
2022/07/08 00:37:18;;;;;;;1.15;1.00;;;22.60;50.70;;;;;;4920158;29;20318;-67
2022/07/08 00:39:45;;;;;;;2.38;1.10;;;22.60;50.80;;;;;;4920133;29;20203;-67
2022/07/08 00:42:13;;;;;;;1.40;1.10;;;22.60;50.80;;;;;;4920010;29;20210;-67
2022/07/08 00:44:41;;;;;;;1.58;1.10;;;22.60;50.50;;;;;;4920051;29;20203;-67
2022/07/08 00:47:09;;;;;;;1.70;1.20;;;22.60;50.40;;;;;;4920641;29;20595;-67
2022/07/08 00:49:36;;;;;;;1.45;1.23;;;22.60;50.60;;;;;;4919860;29;20205;-68
2022/07/08 00:52:03;;;;;;;1.98;1.27;;;22.60;50.30;;;;;;4919795;29;20294;-67
2022/07/08 00:54:30;;;;;;;1.50;1.30;;;22.60;50.10;;;;;;4919702;29;20211;-67
2022/07/08 00:56:57;;;;;;;2.20;1.25;;;22.60;50.20;;;;;;4936932;29;20247;-67
2022/07/08 00:59:25;;;;;;;1.75;1.42;;;22.60;50.20;;;;;;4919604;29;20215;-68
2022/07/08 01:01:54;;;;;;;1.73;1.13;;;22.50;50.10;;;;;;4919914;29;20295;-67
2022/07/08 01:04:21;;;;;;;1.83;1.20;;;22.50;50.00;;;;;;4919615;29;20210;-68
2022/07/08 01:06:48;;;;;;;1.40;1.23;;;22.50;50.10;;;;;;4919629;29;20315;-67
2022/07/08 01:09:16;;;;;;;2.45;1.50;;;22.50;50.20;;;;;;4919610;29;20219;-68
2022/07/08 01:11:45;;;;;;;1.50;1.20;;;22.60;50.00;;;;;;4919732;29;20235;-68
2022/07/08 01:14:12;;;;;;;2.80;1.60;;;22.50;50.10;;;;;;4919727;29;20210;-67
2022/07/08 01:16:39;;;;;;;2.60;1.45;;;22.50;50.10;;;;;;4919611;29;20203;-67
2022/07/08 01:19:08;;;;;;;1.50;1.20;;;22.50;50.10;;;;;;4936599;29;20218;-67
2022/07/08 01:21:37;;;;;;;2.03;1.40;;;22.50;49.90;;;;;;4919508;29;20203;-67
2022/07/08 01:24:04;;;;;;;2.35;1.60;;;22.50;49.80;;;;;;4936394;29;20742;-68
2022/07/08 01:26:31;;;;;;;1.50;1.40;;;22.50;50.00;;;;;;4919366;29;20226;-67
2022/07/08 01:28:58;;;;;;;2.13;1.35;;;22.40;49.90;;;;;;4919367;29;20219;-67
2022/07/08 01:31:26;;;;;;;2.45;1.60;;;22.40;49.70;;;;;;4919266;29;20258;-67
2022/07/08 01:33:53;;;;;;;3.60;1.58;;;22.40;49.60;;;;;;4919258;29;20204;-67
2022/07/08 01:36:21;;;;;;;3.08;1.50;;;22.40;49.90;;;;;;4936149;29;20278;-67
2022/07/08 01:38:49;;;;;;;3.45;2.03;;;22.40;49.60;;;;;;4936176;29;20230;-67
2022/07/08 01:41:16;;;;;;;3.42;1.83;;;22.40;49.50;;;;;;4919266;29;20195;-67
2022/07/08 01:43:44;;;;;;;2.63;1.70;;;22.40;49.70;;;;;;4918941;29;20367;-68
2022/07/08 01:46:11;;;;;;;4.22;1.60;;;22.40;49.80;;;;;;4919291;29;20199;-68
2022/07/08 01:48:39;;;;;;;3.75;2.20;;;22.40;49.90;;;;;;4918856;29;20282;-67
2022/07/08 01:51:06;;;;;;;5.90;2.20;;;22.30;49.80;;;;;;4935951;29;20618;-67
2022/07/08 01:53:33;;;;;;;2.08;1.67;;;22.30;49.70;;;;;;4919277;29;20294;-67
2022/07/08 01:56:01;;;;;;;2.30;1.90;;;22.30;49.50;;;;;;4918994;29;20238;-67
2022/07/08 01:58:29;;;;;;;2.95;1.80;;;22.30;49.50;;;;;;4935828;29;20216;-68
2022/07/08 02:00:56;;;;;;;3.15;1.85;;;22.30;49.50;;;;;;4919210;29;20297;-68
2022/07/08 02:03:23;;;;;;;3.15;2.00;;;22.30;49.50;;;;;;4935571;29;20278;-67
2022/07/08 02:05:50;;;;;;;2.20;1.70;;;22.20;49.50;;;;;;4936078;29;20640;-67
2022/07/08 02:08:18;;;;;;;2.63;1.90;;;22.20;49.70;;;;;;4919143;29;20762;-67
2022/07/08 02:13:31;;;;;;;2.25;1.67;;;22.20;49.60;;;;;;4919166;29;20281;-67
2022/07/08 02:15:58;;;;;;;3.13;1.90;;;22.20;49.20;;;;;;4918641;29;20298;-67
2022/07/08 02:18:25;;;;;;;2.80;1.88;;;22.20;49.40;;;;;;4918473;29;20779;-67
2022/07/08 02:20:53;;;;;;;3.15;1.90;;;22.20;49.70;;;;;;4918633;29;20206;-68
2022/07/08 02:23:20;;;;;;;3.63;1.90;;;22.10;49.70;;;;;;5067895;23;20719;-69
2022/07/08 02:25:47;;;;;;;3.25;1.88;;;22.20;49.70;;;;;;5035611;28;20656;-70
2022/07/08 02:28:14;;;;;;;2.45;1.70;;;22.10;49.50;;;;;;5036621;28;20576;-70
2022/07/08 02:30:42;;;;;;;3.35;1.88;;;22.10;49.80;;;;;;5053412;28;20198;-70
2022/07/08 02:33:09;;;;;;;2.50;1.90;;;22.10;49.70;;;;;;5035275;28;20302;-70
2022/07/08 02:35:37;;;;;;;2.17;1.75;;;22.10;49.50;;;;;;5053478;28;20664;-70
2022/07/08 02:38:04;;;;;;;2.88;1.98;;;22.00;49.70;;;;;;5035169;28;20211;-69
2022/07/08 02:40:31;;;;;;;3.38;1.90;;;22.00;49.70;;;;;;5035174;28;20203;-70
2022/07/08 02:42:58;;;;;;;2.97;1.98;;;22.00;50.20;;;;;;5034997;28;20568;-69
2022/07/08 02:45:25;;;;;;;2.42;1.80;;;22.00;49.70;;;;;;5035156;28;20226;-69
2022/07/08 02:47:54;;;;;;;4.32;2.00;;;22.00;49.70;;;;;;5035213;28;20195;-70
2022/07/08 02:50:21;;;;;;;4.55;2.20;;;22.00;49.70;;;;;;5035693;28;20192;-70
2022/07/08 02:52:50;;;;;;;3.65;2.10;;;21.90;49.50;;;;;;5051984;28;20219;-70
2022/07/08 02:55:17;;;;;;;2.55;1.75;;;21.90;49.60;;;;;;5035168;28;20199;-69
2022/07/08 02:57:44;;;;;;;2.95;1.70;;;21.90;49.60;;;;;;5034882;28;20216;-70
2022/07/08 03:00:12;;;;;;;3.55;1.73;;;21.90;49.90;;;;;;5034835;28;20280;-70
2022/07/08 03:02:39;;;;;;;2.50;1.80;;;21.90;49.90;;;;;;5053740;28;20211;-69
2022/07/08 03:05:08;;;;;;;3.80;1.70;;;21.90;49.50;;;;;;5038176;28;20215;-71
2022/07/08 03:07:35;;;;;;;3.47;1.90;;;21.90;49.70;;;;;;5038849;28;20750;-70
2022/07/08 03:10:02;;;;;;;2.63;1.85;;;21.90;49.10;;;;;;5052888;28;20192;-70
2022/07/08 03:12:29;;;;;;;4.15;1.90;;;21.80;49.00;;;;;;5034605;28;20210;-70
2022/07/08 03:14:57;;;;;;;4.00;2.15;;;21.90;48.70;;;;;;5052522;28;20290;-70
2022/07/08 03:17:23;;;;;;;2.50;1.80;;;21.80;48.60;;;;;;5038217;28;20590;-70
2022/07/08 03:19:51;;;;;;;4.00;2.20;;;21.90;48.40;;;;;;5056332;28;20196;-70
2022/07/08 03:22:19;;;;;;;4.70;1.85;;;21.90;48.50;;;;;;5038137;28;20227;-69
2022/07/08 03:24:46;;;;;;;3.17;1.95;;;21.90;48.40;;;;;;5038081;28;20219;-69
2022/07/08 03:27:13;;;;;;;4.60;2.00;;;21.90;48.50;;;;;;5055790;28;20197;-69
2022/07/08 03:29:40;;;;;;;4.13;2.00;;;21.90;48.50;;;;;;5037829;28;20299;-70
2022/07/08 03:32:07;;;;;;;3.42;1.92;;;22.00;48.40;;;;;;5038003;28;20663;-70
2022/07/08 03:34:34;;;;;;;4.03;1.90;;;22.00;48.20;;;;;;5037749;28;20223;-70
2022/07/08 03:37:01;;;;;;;4.13;2.05;;;22.00;48.30;;;;;;5037561;28;20294;-70
2022/07/08 03:39:30;;;;;;;3.85;1.67;;;22.10;48.20;;;;;;5037712;28;20257;-70
2022/07/08 03:41:56;;;;;;;3.97;1.90;;;22.10;48.00;;;;;;5055481;28;20194;-69
2022/07/08 03:44:23;;;;;;;4.20;1.65;;;22.10;47.80;;;;;;5037657;28;20215;-68
2022/07/08 03:46:50;;;;;;;3.28;1.85;;;22.10;47.70;;;;;;5037479;28;20203;-67
2022/07/08 03:49:17;;;;;;;3.83;1.90;;;22.10;47.70;;;;;;5037451;28;20514;-70
2022/07/08 03:51:44;;;;;;;4.20;1.98;;;22.10;47.50;;;;;;5037752;28;20664;-70
2022/07/08 03:54:11;;;;;;;3.13;1.75;;;22.10;47.50;;;;;;5055510;28;20222;-69
2022/07/08 03:56:39;;;;;;;4.65;2.13;;;22.10;47.70;;;;;;5037645;28;20202;-70
2022/07/08 03:59:06;;;;;;;2.67;1.63;;;22.10;47.70;;;;;;5037388;28;20707;-70
2022/07/08 04:01:34;;;;;;;4.95;2.10;;;22.00;47.70;;;;;;5037202;28;20579;-70
2022/07/08 04:04:00;;;;;;;4.07;1.85;;;22.00;47.80;;;;;;5055000;28;20575;-69
2022/07/08 04:06:27;;;;;;;3.75;1.85;;;22.00;47.70;;;;;;5055032;28;20187;-70
2022/07/08 04:08:54;;;;;;;2.53;1.50;;;22.00;47.80;;;;;;5037030;28;20192;-69
2022/07/08 04:11:21;;;;;;;4.80;2.20;;;22.00;48.40;;;;;;5055043;28;20187;-69
2022/07/08 04:13:51;;;;;;;3.25;1.70;;;22.00;47.90;;;;;;5036931;28;20219;-69
2022/07/08 04:16:18;;;;;;;3.75;2.00;;;22.00;47.80;;;;;;5037021;28;20199;-70
2022/07/08 04:18:46;;;;;;;2.15;1.90;;;22.00;48.40;;;;;;5036823;28;20660;-70
2022/07/08 04:21:12;;;;;;;3.15;1.85;;;22.00;47.90;;;;;;5036652;28;20191;-69
2022/07/08 04:23:40;;;;;;;4.85;2.00;;;22.00;47.90;;;;;;5036794;28;20215;-70
2022/07/08 04:26:07;;;;;;;3.20;1.85;;;22.00;47.90;;;;;;5036316;28;20686;-70
2022/07/08 04:28:34;;;;;;;3.38;1.80;;;22.00;48.10;;;;;;5036790;28;20686;-69
2022/07/08 04:31:03;;;;;;;2.42;1.60;;;22.00;48.20;;;;;;5036975;28;20229;-69
2022/07/08 04:33:31;;;;;;;3.40;1.75;;;22.00;48.00;;;;;;5054468;28;20257;-69
2022/07/08 04:35:59;;;;;;;3.42;1.80;;;22.00;48.10;;;;;;5037029;28;20726;-70
2022/07/08 04:38:27;;;;;;;2.75;2.00;;;22.00;48.00;;;;;;5036757;28;20262;-69
2022/07/08 04:40:54;;;;;;;3.53;1.90;;;22.00;48.00;;;;;;5179189;23;20389;-69
2022/07/08 04:46:16;;;;;;;5.38;2.05;;;22.10;48.30;;;;;;4937546;29;20214;-69
2022/07/08 04:48:43;;;;;;;4.82;2.15;;;22.10;47.50;;;;;;4952388;29;20270;-69
2022/07/08 04:51:10;;;;;;;5.20;2.28;;;22.10;47.10;;;;;;4951965;29;20549;-68
2022/07/08 04:53:37;;;;;;;5.30;2.15;;;22.20;46.80;;;;;;4937632;29;20212;-70
2022/07/08 04:56:04;;;;;;;5.43;2.30;;;22.20;46.40;;;;;;4952280;29;20202;-69
2022/07/08 04:58:32;;;;;;;4.38;2.10;;;22.30;46.30;;;;;;4937231;29;20311;-69
2022/07/08 05:00:58;;;;;;;6.03;2.03;;;22.30;45.90;;;;;;4935815;29;20213;-68
2022/07/08 05:03:27;;;;;;;6.68;2.10;;;22.40;45.60;;;;;;4935423;29;20215;-69
2022/07/08 05:05:54;;;;;;;5.32;2.00;;;22.60;45.40;;;;;;4936678;29;20696;-69
2022/07/08 05:08:21;;;;;;;4.68;2.33;;;22.70;45.10;;;;;;4935402;29;20673;-68
2022/07/08 05:10:48;;;;;;;3.88;2.03;;;22.90;44.60;;;;;;4951225;28;20209;-66
2022/07/08 05:13:15;;;;;;;4.25;2.08;;;23.00;44.40;;;;;;4935155;29;20245;-66
2022/07/08 05:15:42;;;;;;;6.57;2.10;;;23.10;44.00;;;;;;5197712;22;20230;-68
2022/07/08 05:18:10;;;;;;;3.97;1.80;;;23.10;43.70;;;;;;5283463;22;20204;-67
2022/07/08 05:20:38;;;;;;;4.25;1.92;;;23.30;43.90;;;;;;5033808;28;20664;-68
2022/07/08 05:23:06;;;;;;;6.28;2.15;;;23.40;44.10;;;;;;5018970;28;20219;-68
2022/07/08 05:25:33;;;;;;;4.70;2.15;;;23.60;44.10;;;;;;5035787;28;20192;-68
2022/07/08 05:28:00;;;;;;;3.72;2.05;;;23.70;43.80;;;;;;5036036;28;20242;-67
2022/07/08 05:30:27;;;;;;;6.85;2.20;;;23.90;43.60;;;;;;5053707;28;20194;-68
2022/07/08 05:32:54;;;;;;;4.93;1.70;;;24.00;43.30;;;;;;5035515;28;20218;-68
2022/07/08 05:35:21;;;;;;;7.38;1.90;;;24.20;43.10;;;;;;5035519;28;20201;-68
2022/07/08 05:37:49;;;;;;;6.55;1.80;;;24.20;42.70;;;;;;5034963;28;20203;-68
2022/07/08 05:40:16;;;;;;;4.05;1.80;;;24.30;42.50;;;;;;5035873;28;20211;-68
2022/07/08 05:42:43;;;;;;;5.38;1.92;;;24.40;42.40;;;;;;5059048;28;20215;-68
2022/07/08 05:45:13;;;;;;;5.55;2.17;;;24.50;42.20;;;;;;5045390;28;20206;-68
2022/07/08 05:50:15;;;;;;;4.28;1.85;;;24.70;42.10;;;;;;4992554;28;20215;-67
2022/07/08 05:52:42;;;;;;;4.45;1.80;;;24.80;42.00;;;;;;4992820;28;20202;-67
2022/07/08 05:55:11;;;;;;;3.50;1.80;;;24.90;41.80;;;;;;4975056;28;20666;-67
2022/07/08 05:57:38;;;;;;;4.47;1.90;;;25.00;41.70;;;;;;4973792;28;20204;-68
2022/07/08 06:00:06;;;;;;;3.75;1.88;;;25.00;41.50;;;;;;4973134;28;20214;-67
2022/07/08 06:02:39;;;;;;;2.53;1.63;;;25.20;41.30;;;;;;4974996;28;20182;-67
2022/07/08 06:05:07;;;;;;;4.57;1.77;;;25.20;41.10;;;;;;4973412;28;20633;-68
2022/07/08 06:07:34;;;;;;;2.80;1.60;;;25.30;41.20;;;;;;4973536;28;20206;-68
2022/07/08 06:10:01;;;;;;;7.30;2.15;;;25.30;41.10;;;;;;4974374;28;20186;-68
2022/07/08 06:12:29;;;;;;;3.95;1.80;;;25.40;41.00;;;;;;4997275;23;20320;-68
2022/07/08 06:14:56;;;;;;;4.15;1.67;;;25.50;41.00;;;;;;4974884;28;20190;-69
2022/07/08 06:17:23;;;;;;;3.47;1.92;;;25.60;41.00;;;;;;4957246;28;20201;-68
2022/07/08 06:19:51;;;;;;;2.95;1.67;;;25.60;40.70;;;;;;4958607;28;20678;-69
2022/07/08 06:22:18;;;;;;;2.92;1.90;;;25.80;40.60;;;;;;4954550;28;20230;-69
2022/07/08 06:24:45;;;;;;;3.60;1.85;;;25.80;40.50;;;;;;4938072;29;20238;-68
2022/07/08 06:27:12;;;;;;;4.18;1.60;;;25.80;40.50;;;;;;4937697;29;20302;-69
2022/07/08 06:29:40;;;;;;;3.10;1.50;;;25.90;40.30;;;;;;4938358;29;20198;-69
2022/07/08 06:32:08;;;;;;;3.35;1.52;;;26.00;40.10;;;;;;4954644;28;20270;-69
2022/07/08 06:34:37;;;;;;;3.03;1.67;;;26.10;40.00;;;;;;4938119;29;20199;-69
2022/07/08 06:37:04;;;;;;;3.22;1.60;;;26.10;39.80;;;;;;4938252;29;20206;-69
2022/07/08 06:39:31;;;;;;;2.83;1.92;;;26.20;39.80;;;;;;4937901;29;20321;-69
2022/07/08 06:41:58;;;;;;;3.45;1.67;;;26.30;39.60;;;;;;4953955;28;20203;-69
2022/07/08 06:44:26;;;;;;;3.72;1.85;;;26.40;39.50;;;;;;4938122;29;20614;-69
2022/07/08 06:46:54;;;;;;;4.18;1.70;;;26.40;39.50;;;;;;4955067;29;20202;-69
2022/07/08 06:49:21;;;;;;;2.70;1.80;;;26.30;39.40;;;;;;4938820;29;20302;-68
2022/07/08 06:51:48;;;;;;;3.25;1.73;;;26.30;39.60;;;;;;4941739;28;20221;-69
2022/07/08 06:57:00;;;;;;;4.38;1.70;;;26.10;40.00;;;;;;4963903;29;20194;-69
2022/07/08 06:59:28;;;;;;;4.15;1.67;;;25.90;40.20;;;;;;4962224;28;20218;-70
2022/07/08 07:01:56;;;;;;;4.28;1.83;;;25.80;40.40;;;;;;4966001;28;20187;-70
2022/07/08 07:04:23;;;;;;;2.85;1.58;;;25.70;40.50;;;;;;4957076;28;20704;-69
2022/07/08 07:06:50;;;;;;;3.53;1.50;;;25.60;40.70;;;;;;4942057;29;20199;-69
2022/07/08 07:09:17;;;;;;;3.10;1.70;;;25.50;41.00;;;;;;4942009;29;20730;-69
2022/07/08 07:11:44;;;;;;;3.40;1.73;;;25.40;41.10;;;;;;4941533;29;20202;-69
2022/07/08 07:14:12;;;;;;;2.33;1.60;;;25.40;41.20;;;;;;4941240;29;20233;-69
2022/07/08 07:16:39;;;;;;;2.55;1.40;;;25.40;41.20;;;;;;4941255;29;20213;-69
2022/07/08 07:19:08;;;;;;;2.97;1.48;;;25.60;40.70;;;;;;4958459;29;20221;-68
2022/07/08 07:21:35;;;;;;;3.80;1.75;;;25.70;40.50;;;;;;4940950;29;20286;-69
2022/07/08 07:24:02;;;;;;;3.50;1.67;;;25.70;40.60;;;;;;4940895;29;20229;-69
2022/07/08 07:26:29;;;;;;;4.03;1.83;;;25.60;40.80;;;;;;4941096;29;20203;-69
2022/07/08 07:28:56;;;;;;;3.45;1.60;;;25.50;41.00;;;;;;4941063;29;20246;-69
2022/07/08 07:31:24;;;;;;;3.63;1.70;;;25.50;41.00;;;;;;4956978;29;20207;-69
2022/07/08 07:33:51;;;;;;;2.33;1.50;;;25.40;41.20;;;;;;4957760;28;20218;-69
2022/07/08 07:36:19;;;;;;;3.90;1.77;;;25.40;41.20;;;;;;4958012;29;20285;-68
2022/07/08 07:38:47;;;;;;;2.75;1.60;;;25.60;41.00;;;;;;4940581;29;20211;-69
2022/07/08 07:41:14;;;;;;;2.42;1.30;;;25.70;40.80;;;;;;4957754;29;20222;-68
2022/07/08 07:43:42;;;;;;;2.95;1.63;;;25.90;40.50;;;;;;4940436;29;20230;-69
2022/07/08 07:46:09;;;;;;;3.22;1.60;;;26.00;40.20;;;;;;4940669;29;20660;-69
2022/07/08 07:48:36;;;;;;;3.35;1.55;;;26.00;40.00;;;;;;4956555;29;20203;-69
2022/07/08 07:51:03;;;;;;;2.20;1.50;;;26.20;39.90;;;;;;4957604;29;20191;-69
2022/07/08 07:53:31;;;;;;;2.88;1.60;;;26.30;39.50;;;;;;4940072;29;20712;-69
2022/07/08 07:55:59;;;;;;;4.20;1.65;;;26.20;39.50;;;;;;4940412;29;20258;-69
2022/07/08 07:58:26;;;;;;;4.15;1.65;;;26.20;39.50;;;;;;4940643;29;20735;-69
2022/07/08 08:00:53;;;;;;;2.53;1.30;;;26.10;39.60;;;;;;4939452;29;20215;-69
2022/07/08 08:03:20;;;;;;;3.88;1.48;;;26.10;39.60;;;;;;4939949;29;20274;-68
2022/07/08 08:05:47;;;;;;;1.70;1.20;;;26.00;39.40;;;;;;4940298;29;20194;-68
2022/07/08 08:08:15;;;;;;;2.10;1.52;;;26.00;39.50;;;;;;4940107;29;20270;-69
2022/07/08 08:10:43;;;;;;;2.72;1.40;;;25.90;39.40;;;;;;4939899;29;20210;-69
2022/07/08 08:13:11;;;;;;;3.20;1.55;;;25.80;39.50;;;;;;4939964;29;20226;-69
2022/07/08 08:15:39;;;;;;;3.55;1.48;;;25.70;39.70;;;;;;4940886;29;20203;-69
2022/07/08 08:18:06;;;;;;;4.22;1.60;;;25.60;39.70;;;;;;4940006;29;20207;-69
2022/07/08 08:20:33;;;;;;;3.85;1.50;;;25.50;39.90;;;;;;4957075;29;20215;-68
2022/07/08 08:23:01;;;;;;;3.05;1.45;;;25.60;39.80;;;;;;4939870;29;20303;-69
2022/07/08 08:25:27;;;;;;;2.30;1.52;;;25.60;39.60;;;;;;4939823;29;20221;-69
2022/07/08 08:27:56;;;;;;;2.35;1.40;;;25.60;39.70;;;;;;4939577;29;20199;-69
2022/07/08 08:30:23;;;;;;;1.98;1.20;;;25.60;39.70;;;;;;4939620;29;20203;-69
2022/07/08 08:32:50;;;;;;;2.60;1.58;;;25.70;40.10;;;;;;4939673;29;20219;-68
2022/07/08 08:35:17;;;;;;;2.40;1.35;;;25.70;39.80;;;;;;4939441;29;20589;-69
2022/07/08 08:37:44;;;;;;;2.25;1.30;;;25.60;39.60;;;;;;4956602;29;20213;-69
2022/07/08 08:40:12;;;;;;;3.67;1.45;;;25.60;39.80;;;;;;4939195;29;20222;-69
2022/07/08 08:42:40;;;;;;;2.75;1.20;;;25.60;39.90;;;;;;4939366;29;20305;-69
2022/07/08 08:45:09;;;;;;;2.03;1.30;;;25.60;39.70;;;;;;4956612;29;20200;-68
2022/07/08 08:47:37;;;;;;;3.67;1.67;;;25.70;39.90;;;;;;4956689;29;20194;-69
2022/07/08 08:52:47;;;;;;;4.18;1.48;;;25.60;39.60;;;;;;4938115;29;20322;-69
2022/07/08 08:55:15;;;;;;;3.00;1.30;;;25.70;40.00;;;;;;4956556;29;20191;-68
2022/07/08 08:57:42;;;;;;;2.10;1.58;;;25.80;39.10;;;;;;4939031;29;20195;-69
2022/07/08 09:00:11;;;;;;;1.90;1.20;;;25.90;38.90;;;;;;4956274;29;20218;-69
2022/07/08 09:02:39;;;;;;;2.83;1.40;;;25.90;38.70;;;;;;4939012;29;20317;-69
2022/07/08 09:05:07;;;;;;;4.88;1.63;;;25.80;39.00;;;;;;4939007;29;20207;-69
2022/07/08 09:07:34;;;;;;;2.83;1.58;;;25.70;39.50;;;;;;4939104;29;20203;-69
2022/07/08 09:10:01;;;;;;;2.88;1.40;;;25.60;39.80;;;;;;4954745;29;20678;-69
2022/07/08 09:12:28;;;;;;;1.73;1.13;;;25.60;39.80;;;;;;4938626;29;20231;-69
2022/07/08 09:15:00;;;;;;;3.95;1.50;;;25.60;39.50;;;;;;4938745;29;20203;-69
2022/07/08 09:17:29;;;;;;;1.75;1.20;;;25.70;39.20;;;;;;4938920;29;20199;-68
2022/07/08 09:19:56;;;;;;;3.28;1.30;;;25.90;39.00;;;;;;4938583;29;20583;-68
2022/07/08 09:22:23;;;;;;;3.25;1.30;;;26.10;39.10;;;;;;4938634;29;20226;-69
2022/07/08 09:24:50;;;;;;;3.03;1.38;;;26.20;38.80;;;;;;4938579;29;20194;-69
2022/07/08 09:27:17;;;;;;;1.90;1.23;;;26.30;38.50;;;;;;4938868;29;20198;-69
2022/07/08 09:29:57;;;;;;;3.13;1.58;;;26.40;38.70;;;;;;4938397;29;20209;-69
2022/07/08 09:32:24;;;;;;;2.42;1.40;;;26.50;38.50;;;;;;4938533;29;20281;-69
2022/07/08 09:34:52;;;;;;;2.83;1.50;;;26.50;38.20;;;;;;4938916;29;20206;-69
2022/07/08 09:37:20;;;;;;;3.92;1.40;;;26.60;38.00;;;;;;4955999;29;20191;-69
2022/07/08 09:39:48;;;;;;;2.20;1.48;;;26.50;38.00;;;;;;4938516;29;20229;-69
2022/07/08 09:42:17;;;;;;;2.63;1.20;;;26.60;38.20;;;;;;4938613;29;20247;-69
2022/07/08 09:44:51;;;;;;;2.83;1.10;;;26.60;38.40;;;;;;4937986;29;20206;-68
2022/07/08 09:47:18;;;;;;;2.88;1.30;;;26.60;38.30;;;;;;4939124;29;20210;-69
2022/07/08 09:49:46;;;;;;;1.85;1.17;;;26.70;38.40;;;;;;4938343;29;20195;-69
2022/07/08 09:52:21;;;;;;;2.78;1.27;;;26.70;38.30;;;;;;4938067;29;20225;-69
2022/07/08 09:54:58;;;;;;;1.25;1.10;;;26.70;38.10;;;;;;4938374;29;20194;-69
2022/07/08 09:57:25;;;;;;;2.67;1.30;;;26.70;38.10;;;;;;4938136;29;20187;-69
2022/07/08 09:59:53;;;;;;;2.63;1.30;;;26.70;38.10;;;;;;4955191;29;20206;-69
2022/07/08 10:02:20;;;;;;;1.40;0.98;;;26.70;38.40;;;;;;4938252;29;20233;-69
2022/07/08 10:04:47;;;;;;;2.20;1.25;;;26.70;38.60;;;;;;4938186;29;20206;-68
2022/07/08 10:07:15;;;;;;;2.80;1.40;;;26.70;38.20;;;;;;4938367;29;20206;-68
2022/07/08 10:09:42;;;;;;;2.03;1.30;;;26.70;38.20;;;;;;4937989;29;20237;-69
2022/07/08 10:12:11;;;;;;;1.95;1.25;;;26.70;38.40;;;;;;4937725;28;20218;-69
2022/07/08 10:14:39;;;;;;;2.95;1.35;;;26.70;38.40;;;;;;4938075;29;20567;-69
2022/07/08 10:17:07;;;;;;;2.05;1.20;;;26.70;38.50;;;;;;4955326;29;20190;-69
2022/07/08 10:19:38;;;;;;;2.55;1.20;;;26.60;38.50;;;;;;4937825;29;20213;-68
2022/07/08 10:22:05;;;;;;;1.20;1.10;;;26.60;38.50;;;;;;4937974;28;20560;-69
2022/07/08 10:24:33;;;;;;;1.52;1.20;;;26.60;38.70;;;;;;4938848;29;20694;-69
2022/07/08 10:27:02;;;;;;;2.10;1.30;;;26.60;38.60;;;;;;4941924;29;20202;-69
2022/07/08 10:29:29;;;;;;;2.25;1.23;;;26.60;38.60;;;;;;4942527;29;20198;-68
2022/07/08 10:31:56;;;;;;;2.67;1.30;;;26.60;38.90;;;;;;4941585;28;20194;-69
2022/07/08 10:34:29;;;;;;;1.90;1.10;;;26.60;38.70;;;;;;4941942;29;20209;-69
2022/07/08 10:36:56;;;;;;;1.75;1.20;;;26.60;38.60;;;;;;4941591;29;20249;-68
2022/07/08 10:39:26;;;;;;;1.50;1.10;;;26.50;38.90;;;;;;4941849;29;20207;-69
2022/07/08 10:42:02;;;;;;;2.10;1.02;;;26.50;38.80;;;;;;4958905;28;20214;-70
2022/07/08 10:44:48;;;;;;;1.45;1.20;;;26.50;39.20;;;;;;4942225;29;20622;-69
2022/07/08 10:47:16;;;;;;;2.03;1.20;;;26.40;39.20;;;;;;4958899;29;20190;-69
2022/07/08 10:49:44;;;;;;;1.67;1.20;;;26.40;39.20;;;;;;4941815;29;20245;-68
2022/07/08 10:52:11;;;;;;;1.35;1.13;;;26.40;39.30;;;;;;4942031;28;20254;-69
2022/07/08 10:54:39;;;;;;;2.58;1.20;;;26.30;39.30;;;;;;4941846;29;20270;-69
2022/07/08 10:57:27;;;;;;;1.27;1.13;;;26.30;39.40;;;;;;4941603;29;20199;-69
2022/07/08 11:00:06;;;;;;;2.05;1.15;;;26.30;39.60;;;;;;4941692;29;20631;-69
2022/07/08 11:02:33;;;;;;;1.85;1.20;;;26.20;39.70;;;;;;4941886;29;20218;-69
2022/07/08 11:05:00;;;;;;;1.67;1.13;;;26.20;39.80;;;;;;4941541;29;20586;-69
2022/07/08 11:07:28;;;;;;;2.15;1.40;;;26.20;39.90;;;;;;4941626;29;20198;-69
2022/07/08 11:09:57;;;;;;;1.85;1.00;;;26.10;39.80;;;;;;4941521;29;20214;-69
2022/07/08 11:12:27;;;;;;;2.08;1.30;;;26.10;39.80;;;;;;4941532;29;20256;-68
2022/07/08 11:14:55;;;;;;;2.00;1.08;;;26.00;39.90;;;;;;4942204;29;20210;-69
2022/07/08 11:17:23;;;;;;;1.63;1.10;;;26.00;40.00;;;;;;4942971;29;20651;-69
2022/07/08 11:19:51;;;;;;;1.55;1.08;;;26.00;40.20;;;;;;4958760;29;20202;-69
2022/07/08 11:22:18;;;;;;;2.53;1.10;;;26.00;40.40;;;;;;4941406;29;20258;-69
2022/07/08 11:24:45;;;;;;;1.98;1.10;;;25.90;40.30;;;;;;4958635;29;20205;-68
2022/07/08 11:27:12;;;;;;;1.92;1.10;;;25.90;40.40;;;;;;4941050;29;20298;-69
2022/07/08 11:29:48;;;;;;;1.50;1.20;;;25.90;40.60;;;;;;4958463;29;20195;-68
2022/07/08 11:32:15;;;;;;;2.17;1.10;;;25.90;40.70;;;;;;4940909;29;20224;-69
2022/07/08 11:34:42;;;;;;;2.42;1.10;;;25.90;40.60;;;;;;4940916;29;20293;-69
2022/07/08 11:37:09;;;;;;;1.65;0.93;;;25.90;40.80;;;;;;4939722;29;20203;-68
2022/07/08 11:39:36;;;;;;;1.50;1.10;;;25.80;40.60;;;;;;4958089;29;20571;-69
2022/07/08 11:42:04;;;;;;;1.48;1.10;;;25.80;40.70;;;;;;4940354;28;20596;-69
2022/07/08 11:44:31;;;;;;;1.63;1.10;;;25.80;40.70;;;;;;4940980;29;20214;-69
2022/07/08 11:46:59;;;;;;;1.75;1.10;;;25.80;40.80;;;;;;4940367;29;20226;-69
2022/07/08 11:49:26;;;;;;;1.63;1.08;;;25.80;40.90;;;;;;4940405;29;20264;-69
2022/07/08 11:51:54;;;;;;;2.20;1.20;;;25.70;40.90;;;;;;4940575;28;20203;-69
2022/07/08 11:54:22;;;;;;;1.67;1.10;;;25.70;41.10;;;;;;4940294;29;20277;-68
2022/07/08 11:56:52;;;;;;;1.42;1.23;;;25.70;41.10;;;;;;4957822;29;20238;-69
2022/07/08 11:59:21;;;;;;;2.00;1.10;;;25.70;41.10;;;;;;4940588;29;20569;-69
2022/07/08 12:01:48;;;;;;;2.28;1.17;;;25.60;41.00;;;;;;4957143;28;20348;-70
2022/07/08 12:04:17;;;;;;;2.60;1.20;;;25.60;41.10;;;;;;4940687;29;20290;-69
2022/07/08 12:06:48;;;;;;;1.58;1.20;;;25.60;41.20;;;;;;4940445;29;20257;-69
2022/07/08 12:15:39;;;;;;;1.77;1.17;;;25.50;41.40;;;;;;4999233;28;20293;-67
2022/07/08 12:18:06;;;;;;;2.25;1.35;;;25.40;40.90;;;;;;4978603;28;20296;-67
2022/07/08 12:20:35;;;;;;;2.40;1.17;;;25.40;41.40;;;;;;4978793;28;20221;-67
2022/07/08 12:23:02;;;;;;;1.85;1.10;;;25.40;40.90;;;;;;4978325;28;20229;-66
2022/07/08 12:25:29;;;;;;;1.52;1.10;;;25.30;41.50;;;;;;4993446;22;20265;-69
2022/07/08 12:27:57;;;;;;;1.40;1.08;;;25.30;41.50;;;;;;4976590;28;20197;-69
2022/07/08 12:30:28;;;;;;;3.13;1.20;;;25.30;41.20;;;;;;4978140;28;20205;-71
2022/07/08 12:32:59;;;;;;;2.13;1.00;;;25.30;41.70;;;;;;4978170;28;20205;-71
2022/07/08 12:35:29;;;;;;;1.50;1.08;;;25.30;41.50;;;;;;4978522;28;20225;-71
2022/07/08 12:38:05;;;;;;;1.70;1.02;;;25.40;41.80;;;;;;4978662;28;20208;-71
2022/07/08 12:40:37;;;;;;;1.30;1.17;;;25.40;41.80;;;;;;4977935;28;20201;-71
2022/07/08 12:43:05;;;;;;;1.50;0.95;;;25.40;41.80;;;;;;4977806;28;20204;-71
2022/07/08 12:45:32;;;;;;;1.77;1.02;;;25.40;41.60;;;;;;4995440;28;20745;-71
2022/07/08 12:48:00;;;;;;;1.95;1.20;;;25.40;41.20;;;;;;4977669;28;20205;-71
2022/07/08 12:50:27;;;;;;;1.80;1.08;;;25.40;41.00;;;;;;4995447;28;20189;-71
2022/07/08 12:52:54;;;;;;;1.83;1.02;;;25.40;41.30;;;;;;4995570;28;20251;-70
2022/07/08 12:55:23;;;;;;;2.05;1.30;;;25.40;41.60;;;;;;4977635;28;20221;-71
2022/07/08 12:57:50;;;;;;;1.88;1.20;;;25.40;41.70;;;;;;4977531;28;20201;-71
2022/07/08 13:00:18;;;;;;;1.48;1.20;;;25.40;41.60;;;;;;4977612;28;20276;-71
2022/07/08 13:02:45;;;;;;;1.48;1.13;;;25.40;41.70;;;;;;4995077;28;20247;-71
2022/07/08 13:05:13;;;;;;;1.85;1.15;;;25.40;41.70;;;;;;4977464;28;20232;-70
2022/07/08 13:07:40;;;;;;;1.95;1.20;;;25.30;41.80;;;;;;4977485;28;20209;-71
2022/07/08 13:10:08;;;;;;;1.88;1.08;;;25.40;42.00;;;;;;4977238;28;20193;-71
2022/07/08 13:12:37;;;;;;;1.67;1.10;;;25.30;41.90;;;;;;4977291;28;20220;-71